Nearby METAR Reports

Live Weather Gauges   
Station Dashboard   
KEIK - Erie Muni, Colorado, USA
Distance from station: NW 9mi, 15km
Updated: Fri, 21-Jun-2024 8:55am MDT
Mostly cloudy
Mostly cloudy
 Wind from NNW
Wind: NNW 5 mph, 7 km/h
Temperature: 64°F, 18°C
Dew Point: 61°F, 16°C
Humidity: 88%
Barometer: 30.13 inHg, 1020.3 hPa
Clouds: Mostly cloudy
Visibility: 9 miles, 14 km
Cloud details: Mostly cloudy 1200 ft
2024/06/21 14:55 KEIK 211455Z AUTO 33004KT 9SM BKN012 18/16 A3013 RMK AO2 LTG DSNT NW CIG 011V015 T01840156
KBJC - Broomfield/Jeffco, Colorado, USA
Distance from station: W 10mi, 16km
Updated: Fri, 21-Jun-2024 8:59am MDT
Haze, Mostly cloudy
Haze, Mostly cloudy
 Wind from NW
Wind: NW 5 mph, 7 km/h
Temperature: 64°F, 18°C
Dew Point: 59°F, 15°C
Humidity: 83%
Barometer: 30.16 inHg, 1021.3 hPa
Summary: Haze
Clouds: Mostly cloudy
Visibility: 6 miles, 10 km
Cloud details: Mostly cloudy 700 ft
2024/06/21 14:59 KBJC 211459Z 32004KT 6SM HZ BKN007 18/15 A3016
KDEN - Denver (DIA), Colorado, USA
Distance from station: ESE 16mi, 26km
Updated: Fri, 21-Jun-2024 9:10am MDT
Mist, Overcast
Mist, Overcast
 Wind from NW
Wind: NW 9 mph, 15 km/h
Temperature: 63°F, 17°C
Dew Point: 57°F, 14°C
Humidity: 83%
Barometer: 30.13 inHg, 1020.3 hPa
Summary: Mist
Clouds: Overcast
Visibility: 6 miles, 10 km
Cloud details: Overcast 600 ft
2024/06/21 15:10 KDEN 211510Z 32008KT 6SM BR OVC006 17/14 A3013 RMK AO2 T01720144
 
KBKF - Buckley ANGB/Den, Colorado, USA
Distance from station: SE 17mi, 27km
Updated: Fri, 21-Jun-2024 8:58am MDT
Mostly cloudy
Mostly cloudy
 Wind from N
Wind: N 5 mph, 7 km/h
Temperature: 64°F, 18°C
Dew Point: 59°F, 15°C
Humidity: 83%
Barometer: 30.14 inHg, 1020.7 hPa
Clouds: Mostly cloudy
Visibility: 10 miles, 16 km
Cloud details: Few Clouds 600 ft
Partly cloudy 7000 ft
Mostly cloudy 14000 ft
Mostly cloudy 22000 ft
2024/06/21 14:58 KBKF 211458Z 01004KT 10SM FEW006 SCT070 BKN140 BKN220 18/15 A3014 RMK AO2A SLP139 T01820147 52004
KBDU - Boulder Muni, Colorado, USA
Distance from station: WNW 18mi, 29km
Updated: Fri, 21-Jun-2024 8:55am MDT
Mostly cloudy
Mostly cloudy
 Wind from N
Wind: N 3 mph, 6 km/h
Temperature: 63°F, 17°C
Dew Point: 59°F, 15°C
Humidity: 88%
Barometer: 30.14 inHg, 1020.7 hPa
Clouds: Mostly cloudy
Visibility: 10 miles, 16 km
Cloud details: Mostly cloudy 1200 ft
2024/06/21 14:55 KBDU 211455Z AUTO 35003KT 10SM BKN012 17/15 A3014 RMK AO2 LTG DSNT NW
KLMO - Longmont/Vbrand, Colorado, USA
Distance from station: NW 21mi, 34km
Updated: Tue, 18-Jun-2024 2:46pm MDT
NOT Current
Clear
Clear
 Wind from SE
Wind: SE 13 mph, 20 km/h, Gust: 18 mph, 30 km/h
Temperature: 75°F, 24°C
Dew Point: 25°F, -4°C
Humidity: 15%
Barometer: 29.98 inHg, 1015.2 hPa
Clouds: Clear
Visibility: 7 miles, 11 km
2024/06/18 20:46 KLMO 182046Z AUTO 14011G16KT 7SM CLR 24/M04 A2998 RMK AO2 T02371038
 
KAPA - Denver/Arapahoe, Colorado, USA
Distance from station: S 25mi, 39km
Updated: Fri, 21-Jun-2024 8:53am MDT
Mostly cloudy
Mostly cloudy
 Wind from NNW
Wind: NNW 9 mph, 15 km/h
Temperature: 64°F, 18°C
Dew Point: 55°F, 13°C
Humidity: 73%
Barometer: 30.16 inHg, 1021.3 hPa
Clouds: Mostly cloudy
Visibility: 10 miles, 16 km
Cloud details: Partly cloudy 10000 ft
Mostly cloudy 14000 ft
Mostly cloudy 20000 ft
2024/06/21 14:53 KAPA 211453Z 33008KT 10SM SCT100 BKN140 BKN200 18/13 A3016 RMK AO2 SLP155 T01830133 51006
KFNL - Ft Collins/Lovel, Colorado, USA
Distance from station: N 37mi, 60km
Updated: Fri, 21-Jun-2024 8:56am MDT
Few Clouds
Few Clouds
 Wind from varies
Wind: varies 3 mph, 6 km/h
Temperature: 64°F, 18°C
Dew Point: 61°F, 16°C
Humidity: 88%
Barometer: 30.13 inHg, 1020.3 hPa
Clouds: Few Clouds
Visibility: 10 miles, 16 km
Cloud details: Few Clouds 1100 ft
2024/06/21 14:56 KFNL 211456Z VRB03KT 10SM FEW011 18/16 A3013 RMK AO2 SLP150 T01830156 50002
KGXY - Greeley/Weld, Colorado, USA
Distance from station: NNE 38mi, 62km
Updated: Fri, 21-Jun-2024 8:56am MDT
Mostly cloudy
Mostly cloudy
 Wind from ENE
Wind: ENE 5 mph, 7 km/h
Temperature: 64°F, 18°C
Dew Point: 61°F, 16°C
Humidity: 88%
Barometer: 30.12 inHg, 1020 hPa
Clouds: Mostly cloudy
Visibility: 10 miles, 16 km
Cloud details: Mostly cloudy 1100 ft
2024/06/21 14:56 KGXY 211456Z 06004KT 10SM BKN011 18/16 A3012 RMK AO2 SLP165 T01830156 50001
 
KMNH - Monument/Elbert, Colorado, USA
Distance from station: SSE 51mi, 81km
Updated: Fri, 21-Jun-2024 8:55am MDT
Clear
Clear
 Wind from W
Wind: W 6 mph, 9 km/h
Temperature: 66°F, 19°C
Dew Point: 46°F, 8°C
Humidity: 49%
Barometer: 30.24 inHg, 1024 hPa
Clouds: Clear
Visibility: 10 miles, 16 km
2024/06/21 14:55 KMNH 211455Z AUTO 26005KT 10SM CLR 19/08 A3024 RMK AO2
KAFF - USAF Academy/Cos, Colorado, USA
Distance from station: S 66mi, 106km
Updated: Fri, 21-Jun-2024 8:55am MDT
Partly cloudy
Partly cloudy
 Wind from NNE
Wind: NNE 3 mph, 6 km/h
Temperature: 68°F, 20°C
Dew Point: 50°F, 10°C
Humidity: 53%
Barometer: 30.16 inHg, 1021.3 hPa
Clouds: Partly cloudy
Visibility: 10 miles, 16 km
Cloud details: Few Clouds 13000 ft
Partly cloudy 16000 ft
2024/06/21 14:55 KAFF 211455Z 03003KT 10SM FEW130 SCT160 20/10 A3016 RMK AO2A SLP111 60000 T02030104 58004
K4BM - Wilkerson Pass, Colorado, USA
Distance from station: SSW 68mi, 109km
Updated: Fri, 21-Jun-2024 8:55am MDT
Partly cloudy
Partly cloudy
 Wind from S
Wind: S 14 mph, 22 km/h, Gust: 20 mph, 31 km/h
Temperature: 46°F, 8°C
Wind Chill: 40°F, 4°C
Dew Point: 43°F, 6°C
Humidity: 87%
Barometer: 30.55 inHg, 1034.5 hPa
Clouds: Partly cloudy
Visibility: 10 miles, 16 km
Cloud details: Partly cloudy 100 ft
2024/06/21 14:55 K4BM 211455Z AUTO 18012G17KT 10SM SCT001 08/06 A3055 RMK AO2 LTG DSNT S
 
KFLY - Co Spngs Meadow, Colorado, USA
Distance from station: SSE 70mi, 112km
Updated: Fri, 21-Jun-2024 8:55am MDT
Clear
Clear
 Wind from ESE
Wind: ESE 15 mph, 24 km/h
Temperature: 70°F, 21°C
Dew Point: 50°F, 10°C
Humidity: 50%
Barometer: 30.21 inHg, 1023 hPa
Clouds: Clear
Visibility: 10 miles, 16 km
2024/06/21 14:55 KFLY 211455Z AUTO 12013KT 10SM CLR 21/10 A3021 RMK AO2 LTG DSNT NW T02070095
KCCU - Red Cliff Pass, Colorado, USA
Distance from station: WSW 72mi, 116km
Updated: Fri, 21-Jun-2024 8:55am MDT
Partly cloudy
Partly cloudy
 Wind from calm
Wind: Calm
Temperature: 48°F, 9°C
Dew Point: 41°F, 5°C
Humidity: 76%
Barometer: 30.60 inHg, 1036.2 hPa
Clouds: Partly cloudy
Visibility: 10 miles, 16 km
Cloud details: Partly cloudy 1500 ft
2024/06/21 14:55 KCCU 211455Z AUTO 00000KT 10SM SCT015 09/05 A3060 RMK AO2
K20V - Kremmling Awos, Colorado, USA
Distance from station: W 77mi, 123km
Updated: Fri, 21-Jun-2024 8:55am MDT
Clear
Clear
 Wind from ESE
Wind: ESE 5 mph, 7 km/h
Temperature: 59°F, 15°C
Dew Point: 50°F, 10°C
Humidity: 72%
Barometer: 30.33 inHg, 1027.1 hPa
Clouds: Clear
Visibility: 10 miles, 16 km
2024/06/21 14:55 K20V 211455Z AUTO 12004KT 10SM CLR 15/10 A3033 RMK AO2 LTG DSNT NW
 
KCOS - Colorado Springs, Colorado, USA
Distance from station: S 77mi, 124km
Updated: Fri, 21-Jun-2024 8:54am MDT
Mostly cloudy
Mostly cloudy
 Wind from SSE
Wind: SSE 15 mph, 24 km/h
Temperature: 73°F, 23°C
Dew Point: 48°F, 9°C
Humidity: 41%
Barometer: 30.15 inHg, 1021 hPa
Clouds: Mostly cloudy
Visibility: 10 miles, 16 km
Cloud details: Few Clouds 7000 ft
Mostly cloudy 14000 ft
Mostly cloudy 24000 ft
2024/06/21 14:54 KCOS 211454Z 15013KT 10SM FEW070 BKN140 BKN240 23/09 A3015 RMK AO2 SLP116 T02280089 58013
KLIC - Limon, Colorado, USA
Distance from station: ESE 81mi, 130km
Updated: Fri, 21-Jun-2024 8:55am MDT
Few Clouds
Few Clouds
 Wind from S
Wind: S 12 mph, 19 km/h
Temperature: 73°F, 23°C
Dew Point: 55°F, 13°C
Humidity: 53%
Barometer: 30.12 inHg, 1020 hPa
Clouds: Few Clouds
Visibility: 10 miles, 16 km
Cloud details: Few Clouds 12000 ft
2024/06/21 14:55 KLIC 211455Z AUTO 17010KT 10SM FEW120 23/13 A3012 RMK AO2 SLP112 T02330133 58004
KFEW - Warren Air Base, Wyoming, USA
Distance from station: N 84mi, 135km
Updated: Fri, 21-Jun-2024 8:55am MDT
Partly cloudy
Partly cloudy
 Wind from calm
Wind: Calm
Temperature: 66°F, 19°C
Dew Point: 55°F, 13°C
Humidity: 68%
Barometer: 30.16 inHg, 1021.3 hPa
Clouds: Partly cloudy
Visibility: 10 miles, 16 km
Cloud details: Partly cloudy 11000 ft
2024/06/21 14:55 KFEW 211455Z AUTO 00000KT 10SM SCT110 19/13 A3016 RMK AO2 LTG DSNT W SLP144 T01880132 58004 $
 
KCYS - Cheyenne, Wyoming, USA
Distance from station: N 85mi, 138km
Updated: Fri, 21-Jun-2024 8:53am MDT
Clear
Clear
 Wind from E
Wind: E 3 mph, 6 km/h
Temperature: 64°F, 18°C
Dew Point: 55°F, 13°C
Humidity: 73%
Barometer: 30.16 inHg, 1021.3 hPa
Clouds: Clear
Visibility: 10 miles, 16 km
2024/06/21 14:53 KCYS 211453Z 09003KT 10SM CLR 18/13 A3016 RMK AO2 SLP141 T01830128 50000